sensor_id;sensor_type;location;lat;lon;timestamp;temperature;humidity
40434;DHT22;26146;51.114;5.654;2022-12-29T00:01:29;12.50;99.90
40434;DHT22;26146;51.114;5.654;2022-12-29T00:05:30;12.40;99.90
40434;DHT22;26146;51.114;5.654;2022-12-29T00:09:32;12.40;99.90
40434;DHT22;26146;51.114;5.654;2022-12-29T00:13:33;12.40;99.90
40434;DHT22;26146;51.114;5.654;2022-12-29T00:17:53;12.40;99.90
40434;DHT22;26146;51.114;5.654;2022-12-29T00:21:54;12.50;99.90
40434;DHT22;26146;51.114;5.654;2022-12-29T00:26:15;12.40;99.90
40434;DHT22;26146;51.114;5.654;2022-12-29T00:30:49;12.30;99.90
40434;DHT22;26146;51.114;5.654;2022-12-29T00:35:15;12.50;99.90
40434;DHT22;26146;51.114;5.654;2022-12-29T00:39:19;12.50;99.90
40434;DHT22;26146;51.114;5.654;2022-12-29T00:43:38;12.50;99.90
40434;DHT22;26146;51.114;5.654;2022-12-29T00:48:01;12.60;99.90
40434;DHT22;26146;51.114;5.654;2022-12-29T00:52:10;12.80;99.90
40434;DHT22;26146;51.114;5.654;2022-12-29T00:56:11;12.80;99.90
40434;DHT22;26146;51.114;5.654;2022-12-29T01:00:12;12.60;99.90
40434;DHT22;26146;51.114;5.654;2022-12-29T01:04:13;12.70;99.90
40434;DHT22;26146;51.114;5.654;2022-12-29T01:08:14;12.70;99.90
40434;DHT22;26146;51.114;5.654;2022-12-29T01:12:15;12.70;99.90
40434;DHT22;26146;51.114;5.654;2022-12-29T01:16:18;12.80;99.90
40434;DHT22;26146;51.114;5.654;2022-12-29T01:20:19;12.80;99.90
40434;DHT22;26146;51.114;5.654;2022-12-29T01:24:21;12.90;99.90
40434;DHT22;26146;51.114;5.654;2022-12-29T01:28:22;12.70;99.90
40434;DHT22;26146;51.114;5.654;2022-12-29T01:32:23;12.70;99.90
40434;DHT22;26146;51.114;5.654;2022-12-29T01:36:24;12.80;99.90
40434;DHT22;26146;51.114;5.654;2022-12-29T01:40:25;12.80;99.90
40434;DHT22;26146;51.114;5.654;2022-12-29T01:48:51;12.80;99.90
40434;DHT22;26146;51.114;5.654;2022-12-29T01:53:06;12.90;99.90
40434;DHT22;26146;51.114;5.654;2022-12-29T01:57:12;12.70;99.90
40434;DHT22;26146;51.114;5.654;2022-12-29T02:01:15;12.60;99.90
40434;DHT22;26146;51.114;5.654;2022-12-29T02:05:43;12.70;99.90
40434;DHT22;26146;51.114;5.654;2022-12-29T02:09:50;12.80;99.90
40434;DHT22;26146;51.114;5.654;2022-12-29T02:13:52;12.70;99.90
40434;DHT22;26146;51.114;5.654;2022-12-29T02:22:27;12.70;99.90
40434;DHT22;26146;51.114;5.654;2022-12-29T02:31:05;12.70;99.90
40434;DHT22;26146;51.114;5.654;2022-12-29T02:44:55;12.50;99.90
40434;DHT22;26146;51.114;5.654;2022-12-29T02:48:38;12.60;99.90
40434;DHT22;26146;51.114;5.654;2022-12-29T02:52:57;12.60;99.90
40434;DHT22;26146;51.114;5.654;2022-12-29T02:56:59;12.60;99.90
40434;DHT22;26146;51.114;5.654;2022-12-29T03:05:26;12.70;99.90
40434;DHT22;26146;51.114;5.654;2022-12-29T03:09:40;12.50;99.90
40434;DHT22;26146;51.114;5.654;2022-12-29T03:13:47;12.40;99.90
40434;DHT22;26146;51.114;5.654;2022-12-29T03:18:21;12.30;99.90
40434;DHT22;26146;51.114;5.654;2022-12-29T03:22:28;12.20;99.90
40434;DHT22;26146;51.114;5.654;2022-12-29T03:26:33;12.30;99.90
40434;DHT22;26146;51.114;5.654;2022-12-29T03:30:35;12.40;99.90
40434;DHT22;26146;51.114;5.654;2022-12-29T03:34:37;12.30;99.90
40434;DHT22;26146;51.114;5.654;2022-12-29T03:38:45;12.40;99.90
40434;DHT22;26146;51.114;5.654;2022-12-29T03:42:47;12.30;99.90
40434;DHT22;26146;51.114;5.654;2022-12-29T03:46:50;12.50;99.90
40434;DHT22;26146;51.114;5.654;2022-12-29T03:50:51;12.40;99.90
40434;DHT22;26146;51.114;5.654;2022-12-29T03:54:52;12.50;99.90
40434;DHT22;26146;51.114;5.654;2022-12-29T03:58:55;12.40;99.90
40434;DHT22;26146;51.114;5.654;2022-12-29T04:02:56;12.40;99.90
40434;DHT22;26146;51.114;5.654;2022-12-29T04:06:57;12.40;99.90
40434;DHT22;26146;51.114;5.654;2022-12-29T04:10:58;12.30;99.90
40434;DHT22;26146;51.114;5.654;2022-12-29T04:14:59;12.40;99.90
40434;DHT22;26146;51.114;5.654;2022-12-29T04:19:00;12.40;99.90
40434;DHT22;26146;51.114;5.654;2022-12-29T04:23:04;12.40;99.90
40434;DHT22;26146;51.114;5.654;2022-12-29T04:27:05;12.30;99.90
40434;DHT22;26146;51.114;5.654;2022-12-29T04:31:06;12.20;99.90
40434;DHT22;26146;51.114;5.654;2022-12-29T04:35:07;12.20;99.90
40434;DHT22;26146;51.114;5.654;2022-12-29T04:39:08;12.30;99.90
40434;DHT22;26146;51.114;5.654;2022-12-29T04:43:10;12.40;99.90
40434;DHT22;26146;51.114;5.654;2022-12-29T04:47:11;12.30;99.90
40434;DHT22;26146;51.114;5.654;2022-12-29T04:51:12;12.20;99.90
40434;DHT22;26146;51.114;5.654;2022-12-29T04:55:13;12.10;99.90
40434;DHT22;26146;51.114;5.654;2022-12-29T04:59:14;12.10;99.90
40434;DHT22;26146;51.114;5.654;2022-12-29T05:03:15;12.00;99.90
40434;DHT22;26146;51.114;5.654;2022-12-29T05:07:17;11.80;99.90
40434;DHT22;26146;51.114;5.654;2022-12-29T05:11:17;11.80;99.90
40434;DHT22;26146;51.114;5.654;2022-12-29T05:15:19;11.70;99.90
40434;DHT22;26146;51.114;5.654;2022-12-29T05:19:20;11.60;99.90
40434;DHT22;26146;51.114;5.654;2022-12-29T05:23:21;11.60;99.90
40434;DHT22;26146;51.114;5.654;2022-12-29T05:27:22;11.50;99.90
40434;DHT22;26146;51.114;5.654;2022-12-29T05:31:23;11.50;99.90
40434;DHT22;26146;51.114;5.654;2022-12-29T05:35:24;11.50;99.90
40434;DHT22;26146;51.114;5.654;2022-12-29T05:39:24;11.60;99.90
40434;DHT22;26146;51.114;5.654;2022-12-29T05:43:26;11.60;99.90
40434;DHT22;26146;51.114;5.654;2022-12-29T05:47:26;11.80;99.90
40434;DHT22;26146;51.114;5.654;2022-12-29T05:51:27;11.90;99.90
40434;DHT22;26146;51.114;5.654;2022-12-29T05:55:28;12.00;99.90
40434;DHT22;26146;51.114;5.654;2022-12-29T05:59:29;12.10;99.90
40434;DHT22;26146;51.114;5.654;2022-12-29T06:03:33;12.20;99.90
40434;DHT22;26146;51.114;5.654;2022-12-29T06:07:34;12.20;99.90
40434;DHT22;26146;51.114;5.654;2022-12-29T06:11:35;12.20;99.90
40434;DHT22;26146;51.114;5.654;2022-12-29T06:15:36;12.10;99.90
40434;DHT22;26146;51.114;5.654;2022-12-29T06:19:37;12.10;99.90
40434;DHT22;26146;51.114;5.654;2022-12-29T06:23:38;12.20;99.90
40434;DHT22;26146;51.114;5.654;2022-12-29T06:27:39;12.20;99.90
40434;DHT22;26146;51.114;5.654;2022-12-29T06:31:43;12.30;99.90
40434;DHT22;26146;51.114;5.654;2022-12-29T06:35:46;12.10;99.90
40434;DHT22;26146;51.114;5.654;2022-12-29T06:39:46;12.10;99.90
40434;DHT22;26146;51.114;5.654;2022-12-29T06:43:47;12.00;99.90
40434;DHT22;26146;51.114;5.654;2022-12-29T06:47:48;12.00;99.90
40434;DHT22;26146;51.114;5.654;2022-12-29T06:51:49;11.90;99.90
40434;DHT22;26146;51.114;5.654;2022-12-29T06:55:50;12.00;99.90
40434;DHT22;26146;51.114;5.654;2022-12-29T06:59:51;12.20;99.90
40434;DHT22;26146;51.114;5.654;2022-12-29T07:03:52;12.00;99.90
40434;DHT22;26146;51.114;5.654;2022-12-29T07:07:54;11.90;99.90
40434;DHT22;26146;51.114;5.654;2022-12-29T07:11:56;11.90;99.90
40434;DHT22;26146;51.114;5.654;2022-12-29T07:15:57;11.80;99.90
40434;DHT22;26146;51.114;5.654;2022-12-29T07:19:57;11.90;99.90
40434;DHT22;26146;51.114;5.654;2022-12-29T07:23:58;12.00;99.90
40434;DHT22;26146;51.114;5.654;2022-12-29T07:27:59;12.00;99.90
40434;DHT22;26146;51.114;5.654;2022-12-29T07:32:00;11.90;99.90
40434;DHT22;26146;51.114;5.654;2022-12-29T07:36:01;11.90;99.90
40434;DHT22;26146;51.114;5.654;2022-12-29T07:40:03;12.00;99.90
40434;DHT22;26146;51.114;5.654;2022-12-29T07:44:08;12.00;99.90
40434;DHT22;26146;51.114;5.654;2022-12-29T07:48:10;11.90;99.90
40434;DHT22;26146;51.114;5.654;2022-12-29T07:52:11;11.90;99.90
40434;DHT22;26146;51.114;5.654;2022-12-29T07:56:13;11.90;99.90
40434;DHT22;26146;51.114;5.654;2022-12-29T08:00:14;11.90;99.90
40434;DHT22;26146;51.114;5.654;2022-12-29T08:04:15;11.70;99.90
40434;DHT22;26146;51.114;5.654;2022-12-29T08:08:16;11.70;99.90
40434;DHT22;26146;51.114;5.654;2022-12-29T08:12:20;11.70;99.90
40434;DHT22;26146;51.114;5.654;2022-12-29T08:16:21;11.60;99.90
40434;DHT22;26146;51.114;5.654;2022-12-29T08:20:22;11.60;99.90
40434;DHT22;26146;51.114;5.654;2022-12-29T08:24:23;11.40;99.90
40434;DHT22;26146;51.114;5.654;2022-12-29T08:28:24;11.50;99.90
40434;DHT22;26146;51.114;5.654;2022-12-29T08:32:25;11.70;99.90
40434;DHT22;26146;51.114;5.654;2022-12-29T08:36:29;12.00;99.90
40434;DHT22;26146;51.114;5.654;2022-12-29T08:40:31;12.10;99.90
40434;DHT22;26146;51.114;5.654;2022-12-29T08:44:32;12.00;99.90
40434;DHT22;26146;51.114;5.654;2022-12-29T08:48:35;11.90;99.90
40434;DHT22;26146;51.114;5.654;2022-12-29T08:52:36;12.10;99.90
40434;DHT22;26146;51.114;5.654;2022-12-29T08:56:39;12.20;99.90
40434;DHT22;26146;51.114;5.654;2022-12-29T09:00:41;12.10;99.90
40434;DHT22;26146;51.114;5.654;2022-12-29T09:04:42;12.10;99.90
40434;DHT22;26146;51.114;5.654;2022-12-29T09:08:44;12.10;99.90
40434;DHT22;26146;51.114;5.654;2022-12-29T09:12:45;12.30;99.90
40434;DHT22;26146;51.114;5.654;2022-12-29T09:16:45;12.20;99.90
40434;DHT22;26146;51.114;5.654;2022-12-29T09:21:06;12.40;99.90
40434;DHT22;26146;51.114;5.654;2022-12-29T09:25:07;12.40;99.90
40434;DHT22;26146;51.114;5.654;2022-12-29T09:29:09;12.10;99.90
40434;DHT22;26146;51.114;5.654;2022-12-29T09:33:10;12.20;99.90
40434;DHT22;26146;51.114;5.654;2022-12-29T09:37:11;12.00;99.90
40434;DHT22;26146;51.114;5.654;2022-12-29T09:41:29;12.00;99.90
40434;DHT22;26146;51.114;5.654;2022-12-29T09:45:52;11.90;99.90
40434;DHT22;26146;51.114;5.654;2022-12-29T09:50:18;11.70;99.90
40434;DHT22;26146;51.114;5.654;2022-12-29T09:54:49;11.70;99.90
40434;DHT22;26146;51.114;5.654;2022-12-29T09:58:59;11.90;99.90
40434;DHT22;26146;51.114;5.654;2022-12-29T10:03:16;11.90;99.90
40434;DHT22;26146;51.114;5.654;2022-12-29T10:07:40;12.10;99.90
40434;DHT22;26146;51.114;5.654;2022-12-29T10:11:52;12.10;99.90
40434;DHT22;26146;51.114;5.654;2022-12-29T10:24:35;12.00;99.90
40434;DHT22;26146;51.114;5.654;2022-12-29T10:28:50;12.10;99.90
40434;DHT22;26146;51.114;5.654;2022-12-29T10:33:01;12.10;99.90
40434;DHT22;26146;51.114;5.654;2022-12-29T10:37:27;12.10;99.90
40434;DHT22;26146;51.114;5.654;2022-12-29T10:41:55;12.10;99.90
40434;DHT22;26146;51.114;5.654;2022-12-29T10:46:05;12.20;99.90
40434;DHT22;26146;51.114;5.654;2022-12-29T10:50:12;12.40;99.90
40434;DHT22;26146;51.114;5.654;2022-12-29T10:58:29;12.60;99.90
40434;DHT22;26146;51.114;5.654;2022-12-29T11:07:12;12.60;99.90
40434;DHT22;26146;51.114;5.654;2022-12-29T11:11:24;12.80;99.90
40434;DHT22;26146;51.114;5.654;2022-12-29T11:15:27;12.90;99.90
40434;DHT22;26146;51.114;5.654;2022-12-29T11:19:30;12.90;99.90
40434;DHT22;26146;51.114;5.654;2022-12-29T11:23:40;12.60;99.90
40434;DHT22;26146;51.114;5.654;2022-12-29T11:28:15;12.70;99.90
40434;DHT22;26146;51.114;5.654;2022-12-29T11:36:22;12.60;99.90
40434;DHT22;26146;51.114;5.654;2022-12-29T11:40:27;12.60;99.90
40434;DHT22;26146;51.114;5.654;2022-12-29T11:44:35;12.60;99.90
40434;DHT22;26146;51.114;5.654;2022-12-29T11:48:41;12.60;99.90
40434;DHT22;26146;51.114;5.654;2022-12-29T11:52:42;12.60;99.90
40434;DHT22;26146;51.114;5.654;2022-12-29T11:56:43;12.60;99.90
40434;DHT22;26146;51.114;5.654;2022-12-29T12:00:45;12.50;99.90
40434;DHT22;26146;51.114;5.654;2022-12-29T12:04:49;12.30;99.90
40434;DHT22;26146;51.114;5.654;2022-12-29T12:08:56;12.30;99.90
40434;DHT22;26146;51.114;5.654;2022-12-29T12:13:18;12.40;99.90
40434;DHT22;26146;51.114;5.654;2022-12-29T12:17:53;12.50;99.90
40434;DHT22;26146;51.114;5.654;2022-12-29T12:22:03;12.60;99.90
40434;DHT22;26146;51.114;5.654;2022-12-29T12:26:12;12.60;99.90
40434;DHT22;26146;51.114;5.654;2022-12-29T12:30:24;12.60;99.90
40434;DHT22;26146;51.114;5.654;2022-12-29T12:34:41;12.80;99.90
40434;DHT22;26146;51.114;5.654;2022-12-29T12:43:36;12.60;99.90
40434;DHT22;26146;51.114;5.654;2022-12-29T12:52:33;12.60;99.90
40434;DHT22;26146;51.114;5.654;2022-12-29T12:56:42;12.60;99.90
40434;DHT22;26146;51.114;5.654;2022-12-29T13:14:12;12.50;99.90
40434;DHT22;26146;51.114;5.654;2022-12-29T13:18:37;12.50;99.90
40434;DHT22;26146;51.114;5.654;2022-12-29T13:22:56;12.50;99.90
40434;DHT22;26146;51.114;5.654;2022-12-29T13:31:19;12.50;99.90
40434;DHT22;26146;51.114;5.654;2022-12-29T13:36:17;12.50;99.90
40434;DHT22;26146;51.114;5.654;2022-12-29T13:39:58;12.30;99.90
40434;DHT22;26146;51.114;5.654;2022-12-29T13:44:02;12.20;99.90
40434;DHT22;26146;51.114;5.654;2022-12-29T13:48:17;12.20;99.90
40434;DHT22;26146;51.114;5.654;2022-12-29T13:53:01;12.50;99.90
40434;DHT22;26146;51.114;5.654;2022-12-29T14:06:11;12.40;99.90
40434;DHT22;26146;51.114;5.654;2022-12-29T14:10:36;12.40;99.90
40434;DHT22;26146;51.114;5.654;2022-12-29T14:14:38;12.40;99.90
40434;DHT22;26146;51.114;5.654;2022-12-29T14:18:44;12.30;99.90
40434;DHT22;26146;51.114;5.654;2022-12-29T14:35:43;12.30;99.90
40434;DHT22;26146;51.114;5.654;2022-12-29T14:39:45;12.20;99.90
40434;DHT22;26146;51.114;5.654;2022-12-29T14:44:18;12.10;99.90
40434;DHT22;26146;51.114;5.654;2022-12-29T14:48:34;12.00;99.90
40434;DHT22;26146;51.114;5.654;2022-12-29T14:52:59;11.60;99.90
40434;DHT22;26146;51.114;5.654;2022-12-29T14:57:04;11.60;99.90
40434;DHT22;26146;51.114;5.654;2022-12-29T15:01:26;11.20;99.90
40434;DHT22;26146;51.114;5.654;2022-12-29T15:05:45;11.20;99.90
40434;DHT22;26146;51.114;5.654;2022-12-29T15:09:53;11.30;99.90
40434;DHT22;26146;51.114;5.654;2022-12-29T15:13:55;11.20;99.90
40434;DHT22;26146;51.114;5.654;2022-12-29T15:17:56;11.10;99.90
40434;DHT22;26146;51.114;5.654;2022-12-29T15:22:00;11.00;99.90
40434;DHT22;26146;51.114;5.654;2022-12-29T15:26:04;11.10;99.90
40434;DHT22;26146;51.114;5.654;2022-12-29T15:30:13;11.10;99.90
40434;DHT22;26146;51.114;5.654;2022-12-29T15:34:14;11.00;99.90
40434;DHT22;26146;51.114;5.654;2022-12-29T15:38:21;11.30;99.90
40434;DHT22;26146;51.114;5.654;2022-12-29T15:46:55;11.20;99.90
40434;DHT22;26146;51.114;5.654;2022-12-29T15:50:56;11.20;99.90
40434;DHT22;26146;51.114;5.654;2022-12-29T15:54:58;11.20;99.90
40434;DHT22;26146;51.114;5.654;2022-12-29T15:59:00;11.30;99.90
40434;DHT22;26146;51.114;5.654;2022-12-29T16:03:04;11.30;99.90
40434;DHT22;26146;51.114;5.654;2022-12-29T16:07:20;11.40;99.90
40434;DHT22;26146;51.114;5.654;2022-12-29T16:11:46;11.20;99.90
40434;DHT22;26146;51.114;5.654;2022-12-29T16:15:50;11.10;99.90
40434;DHT22;26146;51.114;5.654;2022-12-29T16:19:55;10.20;99.90
40434;DHT22;26146;51.114;5.654;2022-12-29T16:24:01;9.30;99.90
40434;DHT22;26146;51.114;5.654;2022-12-29T16:28:02;9.00;99.90
40434;DHT22;26146;51.114;5.654;2022-12-29T16:32:44;8.80;99.90
40434;DHT22;26146;51.114;5.654;2022-12-29T16:36:59;8.70;99.90
40434;DHT22;26146;51.114;5.654;2022-12-29T16:41:06;9.00;99.90
40434;DHT22;26146;51.114;5.654;2022-12-29T16:49:34;9.00;99.90
40434;DHT22;26146;51.114;5.654;2022-12-29T16:53:38;9.10;99.90
40434;DHT22;26146;51.114;5.654;2022-12-29T17:02:28;9.30;99.90
40434;DHT22;26146;51.114;5.654;2022-12-29T17:06:30;9.30;99.90
40434;DHT22;26146;51.114;5.654;2022-12-29T17:10:36;9.10;99.90
40434;DHT22;26146;51.114;5.654;2022-12-29T17:14:57;9.20;99.90
40434;DHT22;26146;51.114;5.654;2022-12-29T17:18:58;9.10;99.90
40434;DHT22;26146;51.114;5.654;2022-12-29T17:22:59;9.00;99.90
40434;DHT22;26146;51.114;5.654;2022-12-29T17:27:00;9.10;99.90
40434;DHT22;26146;51.114;5.654;2022-12-29T17:31:03;9.00;99.90
40434;DHT22;26146;51.114;5.654;2022-12-29T17:35:13;9.10;99.90
40434;DHT22;26146;51.114;5.654;2022-12-29T17:39:15;9.10;99.90
40434;DHT22;26146;51.114;5.654;2022-12-29T17:43:16;8.90;99.90
40434;DHT22;26146;51.114;5.654;2022-12-29T17:47:17;8.90;99.90
40434;DHT22;26146;51.114;5.654;2022-12-29T17:51:20;9.10;99.90
40434;DHT22;26146;51.114;5.654;2022-12-29T17:55:23;9.00;99.90
40434;DHT22;26146;51.114;5.654;2022-12-29T17:59:24;9.00;99.90
40434;DHT22;26146;51.114;5.654;2022-12-29T18:03:34;9.00;99.90
40434;DHT22;26146;51.114;5.654;2022-12-29T18:07:38;8.90;99.90
40434;DHT22;26146;51.114;5.654;2022-12-29T18:11:41;8.90;99.90
40434;DHT22;26146;51.114;5.654;2022-12-29T18:15:42;8.90;99.90
40434;DHT22;26146;51.114;5.654;2022-12-29T18:19:43;8.80;99.90
40434;DHT22;26146;51.114;5.654;2022-12-29T18:23:44;8.90;99.90
40434;DHT22;26146;51.114;5.654;2022-12-29T18:27:48;8.90;99.90
40434;DHT22;26146;51.114;5.654;2022-12-29T18:31:49;8.90;99.90
40434;DHT22;26146;51.114;5.654;2022-12-29T18:35:58;8.80;99.90
40434;DHT22;26146;51.114;5.654;2022-12-29T18:39:59;8.80;99.90
40434;DHT22;26146;51.114;5.654;2022-12-29T18:44:00;9.00;99.90
40434;DHT22;26146;51.114;5.654;2022-12-29T18:48:01;9.10;99.90
40434;DHT22;26146;51.114;5.654;2022-12-29T18:52:02;9.00;99.90
40434;DHT22;26146;51.114;5.654;2022-12-29T18:56:04;8.80;99.90
40434;DHT22;26146;51.114;5.654;2022-12-29T19:00:08;8.80;99.90
40434;DHT22;26146;51.114;5.654;2022-12-29T19:04:12;8.90;99.90
40434;DHT22;26146;51.114;5.654;2022-12-29T19:08:16;8.80;99.90
40434;DHT22;26146;51.114;5.654;2022-12-29T19:12:17;8.80;99.90
40434;DHT22;26146;51.114;5.654;2022-12-29T19:16:21;9.00;99.90
40434;DHT22;26146;51.114;5.654;2022-12-29T19:20:36;8.90;99.90
40434;DHT22;26146;51.114;5.654;2022-12-29T19:24:37;8.80;99.90
40434;DHT22;26146;51.114;5.654;2022-12-29T19:32:51;8.80;99.90
40434;DHT22;26146;51.114;5.654;2022-12-29T19:36:52;8.80;99.90
40434;DHT22;26146;51.114;5.654;2022-12-29T19:40:53;8.70;99.90
40434;DHT22;26146;51.114;5.654;2022-12-29T19:45:01;8.70;99.90
40434;DHT22;26146;51.114;5.654;2022-12-29T19:49:11;8.60;99.90
40434;DHT22;26146;51.114;5.654;2022-12-29T19:53:12;8.60;99.90
40434;DHT22;26146;51.114;5.654;2022-12-29T19:57:14;8.60;99.90
40434;DHT22;26146;51.114;5.654;2022-12-29T20:01:18;8.60;99.90
40434;DHT22;26146;51.114;5.654;2022-12-29T20:05:19;8.60;99.90
40434;DHT22;26146;51.114;5.654;2022-12-29T20:09:20;8.70;99.90
40434;DHT22;26146;51.114;5.654;2022-12-29T20:13:21;8.60;99.90
40434;DHT22;26146;51.114;5.654;2022-12-29T20:17:22;8.70;99.90
40434;DHT22;26146;51.114;5.654;2022-12-29T20:21:24;8.60;99.90
40434;DHT22;26146;51.114;5.654;2022-12-29T20:25:28;8.60;99.90
40434;DHT22;26146;51.114;5.654;2022-12-29T20:29:34;8.60;99.90
40434;DHT22;26146;51.114;5.654;2022-12-29T20:33:38;8.60;99.90
40434;DHT22;26146;51.114;5.654;2022-12-29T20:37:39;8.50;99.90
40434;DHT22;26146;51.114;5.654;2022-12-29T20:41:40;8.40;99.90
40434;DHT22;26146;51.114;5.654;2022-12-29T20:45:42;8.50;99.90
40434;DHT22;26146;51.114;5.654;2022-12-29T20:49:43;8.50;99.90
40434;DHT22;26146;51.114;5.654;2022-12-29T20:53:44;8.50;99.90
40434;DHT22;26146;51.114;5.654;2022-12-29T20:57:45;8.40;99.90
40434;DHT22;26146;51.114;5.654;2022-12-29T21:01:46;8.30;99.90
40434;DHT22;26146;51.114;5.654;2022-12-29T21:05:47;8.40;99.90
40434;DHT22;26146;51.114;5.654;2022-12-29T21:09:48;8.50;99.90
40434;DHT22;26146;51.114;5.654;2022-12-29T21:13:55;8.50;99.90
40434;DHT22;26146;51.114;5.654;2022-12-29T21:17:56;8.40;99.90
40434;DHT22;26146;51.114;5.654;2022-12-29T21:21:57;8.30;99.90
40434;DHT22;26146;51.114;5.654;2022-12-29T21:26:02;8.20;99.90
40434;DHT22;26146;51.114;5.654;2022-12-29T21:30:06;8.30;99.90
40434;DHT22;26146;51.114;5.654;2022-12-29T21:34:10;8.40;99.90
40434;DHT22;26146;51.114;5.654;2022-12-29T21:38:12;8.40;99.90
40434;DHT22;26146;51.114;5.654;2022-12-29T21:42:13;8.40;99.90
40434;DHT22;26146;51.114;5.654;2022-12-29T21:46:14;8.40;99.90
40434;DHT22;26146;51.114;5.654;2022-12-29T21:50:15;8.30;99.90
40434;DHT22;26146;51.114;5.654;2022-12-29T21:54:22;8.20;99.90
40434;DHT22;26146;51.114;5.654;2022-12-29T21:58:49;8.40;99.90
40434;DHT22;26146;51.114;5.654;2022-12-29T22:03:10;8.40;99.90
40434;DHT22;26146;51.114;5.654;2022-12-29T22:07:30;8.40;99.90
40434;DHT22;26146;51.114;5.654;2022-12-29T22:11:49;8.30;99.90
40434;DHT22;26146;51.114;5.654;2022-12-29T22:16:18;8.30;99.90
40434;DHT22;26146;51.114;5.654;2022-12-29T22:20:22;8.20;99.90
40434;DHT22;26146;51.114;5.654;2022-12-29T22:24:24;8.10;99.90
40434;DHT22;26146;51.114;5.654;2022-12-29T22:28:27;8.30;99.90
40434;DHT22;26146;51.114;5.654;2022-12-29T22:32:28;8.30;99.90
40434;DHT22;26146;51.114;5.654;2022-12-29T22:36:31;8.20;99.90
40434;DHT22;26146;51.114;5.654;2022-12-29T22:40:40;8.30;99.90
40434;DHT22;26146;51.114;5.654;2022-12-29T22:44:42;8.30;99.90
40434;DHT22;26146;51.114;5.654;2022-12-29T22:48:43;8.30;99.90
40434;DHT22;26146;51.114;5.654;2022-12-29T22:52:44;8.20;99.90
40434;DHT22;26146;51.114;5.654;2022-12-29T22:56:45;8.00;99.90
40434;DHT22;26146;51.114;5.654;2022-12-29T23:00:51;8.00;99.90
40434;DHT22;26146;51.114;5.654;2022-12-29T23:04:52;8.10;99.90
40434;DHT22;26146;51.114;5.654;2022-12-29T23:08:53;8.20;99.90
40434;DHT22;26146;51.114;5.654;2022-12-29T23:12:55;8.20;99.90
40434;DHT22;26146;51.114;5.654;2022-12-29T23:16:58;8.20;99.90
40434;DHT22;26146;51.114;5.654;2022-12-29T23:20:59;8.10;99.90
40434;DHT22;26146;51.114;5.654;2022-12-29T23:25:00;8.00;99.90
40434;DHT22;26146;51.114;5.654;2022-12-29T23:29:04;8.10;99.90
40434;DHT22;26146;51.114;5.654;2022-12-29T23:33:05;8.10;99.90
40434;DHT22;26146;51.114;5.654;2022-12-29T23:37:06;8.00;99.90
40434;DHT22;26146;51.114;5.654;2022-12-29T23:41:08;7.90;99.90
40434;DHT22;26146;51.114;5.654;2022-12-29T23:45:09;7.90;99.90
40434;DHT22;26146;51.114;5.654;2022-12-29T23:49:10;7.90;99.90
40434;DHT22;26146;51.114;5.654;2022-12-29T23:53:12;8.00;99.90
40434;DHT22;26146;51.114;5.654;2022-12-29T23:57:13;7.90;99.90
